createdAt,value
2023-03-23T15:58:11.921Z,7.83
2023-03-23T16:00:40.430Z,13.50
2023-03-23T16:03:14.485Z,9.40
2023-03-23T16:05:41.724Z,8.97
2023-03-23T16:08:11.818Z,7.33
2023-03-23T16:10:39.150Z,5.80
2023-03-23T16:13:07.073Z,5.60
2023-03-23T16:15:34.157Z,8.30
2023-03-23T16:18:01.074Z,6.63
2023-03-23T16:20:30.199Z,8.23
2023-03-23T16:22:57.486Z,11.70
2023-03-23T16:25:24.370Z,26.63
2023-03-23T16:27:52.687Z,6.70
2023-03-23T16:30:24.129Z,10.67
2023-03-23T16:32:51.498Z,4.83
2023-03-23T16:35:20.159Z,11.83
2023-03-23T16:38:07.112Z,6.57
2023-03-23T16:40:34.716Z,6.30
2023-03-23T16:43:01.622Z,8.07
2023-03-23T16:45:35.706Z,8.50
2023-03-23T16:48:02.630Z,6.37
2023-03-23T16:50:30.085Z,7.77
2023-03-23T16:52:57.446Z,9.00
2023-03-23T16:55:26.127Z,9.20
2023-03-23T16:58:05.396Z,8.10
2023-03-23T17:00:40.874Z,7.03
2023-03-23T17:03:08.437Z,5.90
2023-03-23T17:05:37.127Z,7.80
2023-03-23T17:08:04.620Z,5.07
2023-03-23T17:10:32.241Z,6.67
2023-03-23T17:12:59.206Z,5.70
2023-03-23T17:15:26.149Z,6.00
2023-03-23T17:17:54.795Z,7.60
2023-03-23T17:20:22.402Z,8.33
2023-03-23T17:22:49.488Z,7.03
2023-03-23T17:25:16.493Z,6.00
2023-03-23T17:27:43.409Z,6.00
2023-03-23T17:30:11.457Z,11.57
2023-03-23T17:32:39.091Z,7.17
2023-03-23T17:35:06.977Z,5.10
2023-03-23T17:37:34.448Z,7.00
2023-03-23T17:40:01.371Z,9.37
2023-03-23T17:42:29.550Z,7.27
2023-03-23T17:44:56.468Z,6.67
2023-03-23T17:47:24.095Z,9.30
2023-03-23T17:49:51.382Z,10.33
2023-03-23T17:52:18.293Z,7.77
2023-03-23T17:54:45.494Z,5.30
2023-03-23T17:57:12.469Z,7.20
2023-03-23T17:59:39.548Z,7.80
2023-03-23T18:02:06.670Z,7.13
2023-03-23T18:04:33.598Z,5.40
2023-03-23T18:07:00.970Z,9.50
2023-03-23T18:09:28.176Z,7.50
2023-03-23T18:11:56.558Z,7.47
2023-03-23T18:14:23.563Z,7.07
2023-03-23T18:16:50.609Z,6.90
2023-03-23T18:19:17.594Z,8.00
2023-03-23T18:21:46.000Z,10.30
2023-03-23T18:24:13.221Z,6.03
2023-03-23T18:26:40.931Z,9.00
2023-03-23T18:29:07.850Z,9.30
2023-03-23T18:31:39.926Z,9.40
2023-03-23T18:34:07.530Z,16.33
2023-03-23T18:36:35.065Z,16.93
2023-03-23T18:39:03.700Z,10.33
2023-03-23T18:41:30.681Z,8.50
2023-03-23T18:43:57.881Z,8.53
2023-03-23T18:46:25.487Z,7.60
2023-03-23T18:48:52.492Z,6.03
2023-03-23T18:51:19.380Z,6.87
2023-03-23T18:53:46.379Z,7.67
2023-03-23T18:56:16.439Z,10.30
2023-03-23T18:58:44.782Z,8.47
2023-03-23T19:01:16.951Z,6.03
2023-03-23T19:03:45.313Z,7.70
2023-03-23T19:06:22.537Z,9.70
2023-03-23T19:08:50.242Z,6.97
2023-03-23T19:11:18.153Z,5.03
2023-03-23T19:13:58.450Z,6.70
2023-03-23T19:16:31.068Z,7.37
2023-03-23T19:18:58.137Z,8.50
2023-03-23T19:21:25.905Z,8.93
2023-03-23T19:23:55.240Z,9.53
2023-03-23T19:26:34.708Z,8.37
2023-03-23T19:31:35.948Z,11.40
2023-03-23T19:34:02.890Z,8.30
2023-03-23T19:36:30.316Z,8.80
2023-03-23T19:38:57.802Z,12.60
2023-03-23T19:41:30.334Z,6.40
2023-03-23T19:43:57.607Z,7.33
2023-03-23T19:46:26.027Z,7.53
2023-03-23T19:48:54.631Z,19.20
2023-03-23T19:51:22.465Z,35.77
2023-03-23T19:53:50.193Z,46.70
2023-03-23T19:56:21.511Z,41.47
2023-03-23T19:58:49.042Z,42.33
2023-03-23T20:01:16.764Z,29.53
2023-03-23T20:03:44.060Z,22.37
2023-03-23T20:06:15.119Z,24.70
2023-03-23T20:08:45.549Z,16.63
2023-03-23T20:11:17.176Z,13.43
2023-03-23T20:13:45.936Z,13.67
2023-03-23T20:16:12.970Z,12.13
2023-03-23T20:18:40.613Z,10.77
2023-03-23T20:21:14.473Z,11.00
2023-03-23T20:23:42.941Z,8.70
2023-03-23T20:26:14.752Z,9.07
2023-03-23T20:28:42.682Z,16.30
2023-03-23T20:31:19.282Z,10.33
2023-03-23T20:34:00.249Z,12.10
2023-03-23T20:36:34.783Z,12.07
2023-03-23T20:39:12.507Z,8.10
2023-03-23T20:41:40.373Z,7.70
2023-03-23T20:44:13.739Z,10.90
2023-03-23T20:46:45.778Z,6.40
2023-03-23T20:49:13.912Z,7.50
2023-03-23T20:51:40.987Z,9.27
2023-03-23T20:54:08.001Z,11.50
2023-03-23T20:56:35.614Z,12.40
2023-03-23T20:59:03.701Z,11.50
2023-03-23T21:01:33.155Z,9.70
2023-03-23T21:04:00.284Z,11.40
2023-03-23T21:06:28.768Z,8.23
2023-03-23T21:08:57.428Z,8.30
2023-03-23T21:11:26.641Z,8.97
2023-03-23T21:13:54.278Z,11.70
2023-03-23T21:16:21.535Z,9.77
2023-03-23T21:18:48.633Z,5.50
2023-03-23T21:21:18.381Z,8.33
2023-03-23T21:23:47.505Z,8.23
2023-03-23T21:26:17.001Z,7.97
2023-03-23T21:28:45.796Z,7.97
2023-03-23T21:31:14.980Z,8.43
2023-03-23T21:33:42.026Z,10.53
2023-03-23T21:36:10.096Z,7.17
2023-03-23T21:38:38.356Z,8.93
2023-03-23T21:41:14.282Z,8.10
2023-03-23T21:43:41.730Z,5.93
2023-03-23T21:46:09.840Z,9.53
2023-03-23T21:48:41.533Z,6.77
2023-03-23T21:51:13.416Z,8.10
2023-03-23T21:53:42.025Z,7.20
2023-03-23T21:56:10.728Z,5.50
2023-03-23T21:58:38.387Z,7.80
2023-03-23T22:01:05.629Z,7.33
2023-03-23T22:03:35.283Z,6.20
2023-03-23T22:06:16.310Z,6.53
2023-03-23T22:08:45.312Z,7.20
2023-03-23T22:11:17.119Z,8.07
2023-03-23T22:13:44.238Z,6.53
2023-03-23T22:16:14.892Z,6.50
2023-03-23T22:18:43.321Z,7.27
2023-03-23T22:21:11.341Z,7.30
2023-03-23T22:23:39.402Z,5.97
2023-03-23T22:26:07.540Z,6.17
2023-03-23T22:28:37.072Z,6.57
2023-03-23T22:31:14.274Z,8.43
2023-03-23T22:33:41.169Z,9.90
2023-03-23T22:36:08.846Z,7.10
2023-03-23T22:38:38.449Z,6.90
2023-03-23T22:41:08.200Z,8.20
2023-03-23T22:43:36.637Z,7.50
2023-03-23T22:46:04.861Z,5.43
2023-03-23T22:48:31.982Z,7.83
2023-03-23T22:50:59.532Z,10.63
2023-03-23T22:53:26.452Z,8.30
2023-03-23T22:55:56.642Z,6.87
2023-03-23T22:58:25.913Z,8.40
2023-03-23T23:01:02.821Z,8.10
2023-03-23T23:03:30.799Z,6.20
2023-03-23T23:05:59.462Z,5.70
2023-03-23T23:08:28.518Z,7.07
2023-03-23T23:10:57.701Z,7.33
2023-03-23T23:13:25.913Z,6.80
2023-03-23T23:15:56.966Z,9.07
2023-03-23T23:18:25.927Z,15.10
2023-03-23T23:20:56.355Z,8.97
2023-03-23T23:23:25.172Z,7.43
2023-03-23T23:25:52.170Z,8.07
2023-03-23T23:28:20.236Z,5.80
2023-03-23T23:30:47.753Z,6.77
2023-03-23T23:33:14.991Z,5.70
2023-03-23T23:35:42.491Z,6.70
2023-03-23T23:38:12.341Z,6.50
2023-03-23T23:40:41.380Z,7.30
2023-03-23T23:43:10.713Z,9.33
2023-03-23T23:45:37.960Z,6.73
2023-03-23T23:48:05.381Z,10.40
2023-03-23T23:50:32.800Z,10.40
2023-03-23T23:53:00.140Z,6.80
2023-03-23T23:55:27.925Z,6.90
2023-03-23T23:57:54.847Z,9.53
